This is the latest recevied weather packets stored in our database for station/object N3MFL. If no packets are shown the sender has not sent any weather packets the latest 10 day(s).
| Time | Temp. | Humidity | Pressure | Rain* | Wind** | Luminosity | Snow |
|---|---|---|---|---|---|---|---|
| 1778003226 | 21.11° C | 57% | 1011 hPa | 0 mm | - | 386 W/m² | - |
| 1778002922 | 20.56° C | 57% | 1011.4 hPa | 0 mm | - | 418 W/m² | - |
| 1778002619 | 21.67° C | 56% | 1011.2 hPa | 0 mm | - | 153 W/m² | - |
| 1778002315 | 21.11° C | 58% | 1011.1 hPa | 0 mm | - | 528 W/m² | - |
| 1778002013 | 21.11° C | 57% | 1011.1 hPa | 0 mm | - | 443 W/m² | - |
| 1778001710 | 21.11° C | 59% | 1011.2 hPa | 0 mm | - | 276 W/m² | - |
| 1778001409 | 21.11° C | 58% | 1011.2 hPa | 0 mm | - | 222 W/m² | - |
| 1778001107 | 21.67° C | 58% | 1011.2 hPa | 0 mm | - | 269 W/m² | - |
| 1778000804 | 20.56° C | 61% | 1011.1 hPa | 0 mm | - | 290 W/m² | - |
| 1778000501 | 20.56° C | 58% | 1011.1 hPa | 0 mm | - | 243 W/m² | - |
| 1778000200 | 21.11° C | 58% | 1011.2 hPa | 0 mm | - | 357 W/m² | - |
| 1777999897 | 21.11° C | 58% | 1011.2 hPa | 0 mm | - | 348 W/m² | - |
| 1777999592 | 21.11° C | 59% | 1011.3 hPa | 0 mm | - | 356 W/m² | - |
| 1777999290 | 21.11° C | 59% | 1011.4 hPa | 0 mm | - | 385 W/m² | - |
| 1777998988 | 21.11° C | 59% | 1011.5 hPa | 0 mm | - | 402 W/m² | - |
| 1777998685 | 20.56° C | 60% | 1011.7 hPa | 0 mm | - | 308 W/m² | - |
| 1777998383 | 20.56° C | 61% | 1011.7 hPa | 0 mm | - | 322 W/m² | - |
| 1777998080 | 21.11° C | 59% | 1011.9 hPa | 0 mm | - | 519 W/m² | - |
| 1777997778 | 21.11° C | 60% | 1011.9 hPa | 0 mm | - | 672 W/m² | - |
| 1777997475 | 20.56° C | 60% | 1011.7 hPa | 0 mm | - | 704 W/m² | - |
| 1777997172 | 20.56° C | 60% | 1011.8 hPa | 0 mm | - | 705 W/m² | - |
| 1777996869 | 21.67° C | 59% | 1011.6 hPa | 0 mm | - | 713 W/m² | - |
| 1777996566 | 21.11° C | 60% | 1011.8 hPa | 0 mm | - | 722 W/m² | - |
| 1777996262 | 20.56° C | 60% | 1011.6 hPa | 0 mm | - | 706 W/m² | - |
| 1777995958 | 20.56° C | 60% | 1011.7 hPa | 0 mm | - | 663 W/m² | - |
* Rain latest hour (hover to see other rain measurements)
** Current wind speed in m/s (hover to see current wind gust speed)